Time;durP1;ratioP1;P1;durP2;ratioP2;P2;SDS_P1;SDS_P2;PMS_P1;PMS_P2;Temp;Humidity;BMP_temperature;BMP_pressure;BME280_temperature;BME280_humidity;BME280_pressure;Samples;Min_cycle;Max_cycle;Signal;HPM_P1;HPM_P2
2024/01/14 00:01:56;;;;;;;37.53;12.43;;;3.80;99.90;;;;;;4998774;28;20402;-75
2024/01/14 00:04:22;;;;;;;36.85;12.50;;;3.70;99.90;;;;;;4998464;28;20026;-76
2024/01/14 00:06:49;;;;;;;36.92;11.27;;;3.70;99.90;;;;;;4997825;28;20093;-76
2024/01/14 00:09:16;;;;;;;42.22;13.52;;;3.70;99.90;;;;;;4999111;28;20081;-76
2024/01/14 00:11:41;;;;;;;33.33;11.48;;;3.70;99.90;;;;;;4998556;28;20030;-77
2024/01/14 00:14:07;;;;;;;29.65;10.68;;;3.70;99.90;;;;;;4997655;28;20022;-76
2024/01/14 00:16:34;;;;;;;35.15;12.10;;;3.70;99.90;;;;;;4997861;28;20028;-76
2024/01/14 00:19:03;;;;;;;35.10;11.98;;;3.70;99.90;;;;;;4998848;28;20021;-76
2024/01/14 00:21:29;;;;;;;35.90;12.43;;;3.70;99.90;;;;;;4997909;28;20030;-76
2024/01/14 00:23:55;;;;;;;36.33;13.00;;;3.70;99.90;;;;;;4997498;28;20030;-76
2024/01/14 00:26:24;;;;;;;39.85;12.02;;;;;;;;;;4998313;28;20398;-76
2024/01/14 00:28:50;;;;;;;;;;;3.60;99.90;;;;;;4999729;28;20154;-76
2024/01/14 00:31:16;;;;;;;29.88;11.38;;;3.70;99.90;;;;;;4997217;28;19917;-76
2024/01/14 00:33:42;;;;;;;35.92;11.25;;;3.60;99.90;;;;;;4999414;28;20014;-76
2024/01/14 00:36:08;;;;;;;35.40;12.38;;;3.60;99.90;;;;;;4999616;28;20363;-77
2024/01/14 00:38:34;;;;;;;41.85;10.85;;;3.60;99.90;;;;;;4999089;28;20020;-77
2024/01/14 00:40:59;;;;;;;36.53;12.82;;;3.60;99.90;;;;;;4996801;28;20033;-76
2024/01/14 00:43:26;;;;;;;32.95;11.82;;;3.50;99.90;;;;;;4996268;28;20030;-76
2024/01/14 00:45:52;;;;;;;37.33;13.02;;;3.60;99.90;;;;;;4997578;28;20016;-76
2024/01/14 00:48:18;;;;;;;36.83;11.95;;;3.60;99.90;;;;;;4998223;28;20037;-76
2024/01/14 00:50:43;;;;;;;38.03;13.05;;;3.60;99.90;;;;;;4997475;28;20057;-76
2024/01/14 00:53:09;;;;;;;37.40;12.93;;;3.60;99.90;;;;;;4999197;28;20076;-76
2024/01/14 00:55:35;;;;;;;41.75;12.15;;;3.60;99.90;;;;;;4998404;28;20023;-76
2024/01/14 00:58:01;;;;;;;33.60;10.88;;;3.60;99.90;;;;;;4997244;28;20439;-76
2024/01/14 01:00:26;;;;;;;34.10;12.60;;;3.50;99.90;;;;;;4997370;28;20026;-75
2024/01/14 01:02:52;;;;;;;33.35;10.77;;;4.20;99.90;;;;;;4998732;28;20053;-75
2024/01/14 01:05:18;;;;;;;38.55;12.02;;;3.50;99.90;;;;;;4995695;28;20027;-75
2024/01/14 01:07:45;;;;;;;34.97;11.93;;;3.50;99.90;;;;;;4997972;28;20022;-75
2024/01/14 01:10:11;;;;;;;37.30;12.40;;;3.50;99.90;;;;;;4996639;28;20041;-76
2024/01/14 01:12:37;;;;;;;33.95;11.15;;;3.90;99.90;;;;;;4996960;28;20023;-75
2024/01/14 01:15:05;;;;;;;38.92;12.77;;;3.60;99.90;;;;;;4998170;28;20394;-76
2024/01/14 01:17:31;;;;;;;29.20;9.02;;;3.60;99.90;;;;;;4997923;28;20010;-76
2024/01/14 01:19:58;;;;;;;37.17;12.13;;;3.60;99.90;;;;;;4998012;28;20026;-76
2024/01/14 01:22:24;;;;;;;39.90;13.38;;;3.50;99.90;;;;;;4996180;28;20026;-76
2024/01/14 01:24:49;;;;;;;45.25;13.60;;;3.50;99.90;;;;;;4997440;28;20073;-76
2024/01/14 01:27:15;;;;;;;42.10;13.35;;;3.50;99.90;;;;;;4996794;28;20029;-77
2024/01/14 01:29:41;;;;;;;42.85;12.00;;;3.60;99.90;;;;;;4997006;28;20085;-76
2024/01/14 01:32:07;;;;;;;38.00;12.38;;;3.50;99.90;;;;;;4998398;28;20081;-76
2024/01/14 01:34:32;;;;;;;37.60;11.85;;;3.60;99.90;;;;;;4997612;28;20057;-76
2024/01/14 01:36:58;;;;;;;39.25;12.75;;;3.60;99.90;;;;;;4998030;28;20062;-76
2024/01/14 01:39:23;;;;;;;36.00;11.48;;;3.60;99.90;;;;;;4997226;28;20057;-76
2024/01/14 01:41:52;;;;;;;36.38;12.27;;;3.60;99.90;;;;;;4996052;28;20027;-76
2024/01/14 01:44:18;;;;;;;40.20;12.10;;;3.60;99.90;;;;;;4996769;28;20025;-76
2024/01/14 01:46:44;;;;;;;40.97;12.38;;;3.70;99.90;;;;;;4998108;28;20109;-76
2024/01/14 01:49:11;;;;;;;37.33;14.43;;;3.60;99.90;;;;;;4996947;28;20058;-76
2024/01/14 01:51:39;;;;;;;43.80;14.73;;;3.50;99.90;;;;;;4997575;28;20026;-76
2024/01/14 01:54:05;;;;;;;41.83;14.20;;;3.50;99.90;;;;;;4998510;28;20023;-76
2024/01/14 01:56:32;;;;;;;40.17;13.25;;;3.40;99.90;;;;;;4996729;28;20033;-76
2024/01/14 01:58:59;;;;;;;43.60;14.48;;;3.40;99.90;;;;;;4995560;28;20023;-76
2024/01/14 02:01:25;;;;;;;39.92;12.77;;;3.30;99.90;;;;;;4996479;28;20549;-76
2024/01/14 02:03:53;;;;;;;39.60;13.15;;;3.30;99.90;;;;;;4994719;28;20073;-77
2024/01/14 02:06:20;;;;;;;36.55;13.07;;;3.20;99.90;;;;;;4995374;28;20025;-76
2024/01/14 02:08:46;;;;;;;38.70;13.40;;;3.20;99.90;;;;;;4996450;28;20035;-76
2024/01/14 02:11:12;;;;;;;39.33;13.52;;;3.20;99.90;;;;;;4995212;28;20026;-76
2024/01/14 02:13:38;;;;;;;38.67;12.38;;;3.20;99.90;;;;;;4996251;28;20482;-76
2024/01/14 02:16:04;;;;;;;41.88;12.90;;;3.10;99.90;;;;;;4995659;28;20112;-76
2024/01/14 02:18:30;;;;;;;45.22;13.93;;;3.10;99.90;;;;;;4999964;28;20033;-76
2024/01/14 02:20:56;;;;;;;41.95;12.55;;;3.00;99.90;;;;;;5000552;28;20026;-76
2024/01/14 02:23:23;;;;;;;43.70;14.13;;;3.00;99.90;;;;;;5000673;28;20018;-76
2024/01/14 02:25:49;;;;;;;39.25;12.68;;;3.00;99.90;;;;;;5003152;28;20426;-76
2024/01/14 02:28:15;;;;;;;42.50;13.40;;;2.90;99.90;;;;;;5000012;28;20023;-75
2024/01/14 02:30:43;;;;;;;36.58;13.90;;;2.90;99.90;;;;;;4999802;28;20072;-75
2024/01/14 02:33:10;;;;;;;45.97;13.77;;;2.90;99.90;;;;;;5000833;28;20520;-76
2024/01/14 02:35:36;;;;;;;45.08;12.98;;;2.80;99.90;;;;;;5000227;28;20056;-75
2024/01/14 02:38:01;;;;;;;45.33;14.77;;;2.80;99.90;;;;;;5000724;28;20022;-75
2024/01/14 02:40:27;;;;;;;49.67;14.98;;;2.80;99.90;;;;;;5000370;28;20101;-75
2024/01/14 02:42:52;;;;;;;53.63;15.63;;;2.80;99.90;;;;;;5000599;28;20073;-77
2024/01/14 02:45:19;;;;;;;48.72;14.40;;;2.90;99.90;;;;;;5000761;28;20040;-77
2024/01/14 02:47:44;;;;;;;47.72;13.85;;;2.90;99.90;;;;;;4999319;28;20030;-76
2024/01/14 02:50:10;;;;;;;47.40;14.27;;;3.60;99.90;;;;;;5000902;28;20041;-77
2024/01/14 02:52:35;;;;;;;50.60;14.27;;;2.80;99.90;;;;;;5000223;28;20030;-76
2024/01/14 02:55:01;;;;;;;42.40;13.55;;;2.90;99.90;;;;;;4999170;28;20022;-76
2024/01/14 02:57:27;;;;;;;48.67;15.93;;;2.90;99.90;;;;;;5000325;28;20026;-77
2024/01/14 02:59:52;;;;;;;45.75;14.32;;;2.90;99.90;;;;;;4999994;28;20030;-77
2024/01/14 03:02:18;;;;;;;52.90;15.23;;;2.90;99.90;;;;;;4999892;28;20089;-77
2024/01/14 03:04:44;;;;;;;52.08;17.20;;;2.90;99.90;;;;;;5000087;28;20541;-77
2024/01/14 03:07:09;;;;;;;54.20;16.10;;;2.90;99.90;;;;;;4999572;28;20038;-77
2024/01/14 03:09:35;;;;;;;51.97;16.23;;;4.80;99.90;;;;;;4999895;28;20030;-77
2024/01/14 03:12:01;;;;;;;43.15;14.77;;;3.00;99.90;;;;;;4999761;28;20556;-76
2024/01/14 03:14:26;;;;;;;47.33;16.05;;;3.00;99.90;;;;;;4999607;28;20046;-77
2024/01/14 03:16:52;;;;;;;44.03;14.18;;;3.00;99.90;;;;;;4998978;28;20057;-77
2024/01/14 03:19:17;;;;;;;47.35;15.35;;;2.90;99.90;;;;;;4999260;28;20041;-77
2024/01/14 03:21:43;;;;;;;48.65;14.48;;;2.90;99.90;;;;;;4999956;28;20037;-76
2024/01/14 03:24:08;;;;;;;50.13;15.45;;;2.90;99.90;;;;;;4998430;28;20022;-76
2024/01/14 03:26:34;;;;;;;41.42;14.02;;;2.80;99.90;;;;;;4998413;28;20030;-77
2024/01/14 03:29:00;;;;;;;40.22;14.45;;;2.80;99.90;;;;;;4997344;28;20018;-77
2024/01/14 03:31:25;;;;;;;43.03;14.20;;;2.80;99.90;;;;;;4998353;28;20493;-77
2024/01/14 03:33:51;;;;;;;36.53;13.15;;;4.00;99.90;;;;;;5000295;28;20030;-77
2024/01/14 03:36:19;;;;;;;42.40;14.02;;;2.70;99.90;;;;;;4999143;28;20110;-77
2024/01/14 03:38:45;;;;;;;39.88;13.98;;;2.80;99.90;;;;;;4998761;28;20109;-77
2024/01/14 03:41:11;;;;;;;40.28;13.10;;;2.80;99.90;;;;;;4999577;28;20093;-77
2024/01/14 03:43:37;;;;;;;38.58;13.25;;;2.60;99.90;;;;;;4999589;28;20022;-77
2024/01/14 03:46:03;;;;;;;37.53;12.52;;;2.70;99.90;;;;;;4999444;28;20397;-77
2024/01/14 03:48:29;;;;;;;41.10;12.73;;;;;;;;;;4998038;28;20034;-77
2024/01/14 03:50:54;;;;;;;41.38;13.18;;;2.70;99.90;;;;;;4998008;28;20033;-77
2024/01/14 03:53:20;;;;;;;51.20;14.68;;;;;;;;;;4997598;28;20018;-77
2024/01/14 03:55:47;;;;;;;43.03;13.70;;;2.70;99.90;;;;;;4996918;28;20112;-77
2024/01/14 03:58:13;;;;;;;38.13;13.98;;;2.70;99.90;;;;;;4996743;28;20022;-77
2024/01/14 04:00:38;;;;;;;42.47;13.98;;;2.70;99.90;;;;;;4997561;28;20070;-77
2024/01/14 04:03:04;;;;;;;45.10;13.65;;;2.70;99.90;;;;;;4997503;28;20233;-77
2024/01/14 04:05:30;;;;;;;49.83;15.45;;;2.70;99.90;;;;;;4998901;28;20065;-76
2024/01/14 04:07:56;;;;;;;45.03;15.05;;;2.70;99.90;;;;;;4999033;28;20034;-76
2024/01/14 04:10:21;;;;;;;42.17;14.70;;;2.80;99.90;;;;;;4997333;28;20114;-76
2024/01/14 04:12:47;;;;;;;42.33;14.70;;;4.60;99.90;;;;;;4998597;28;20497;-76
2024/01/14 04:15:12;;;;;;;44.38;14.60;;;2.80;99.90;;;;;;4995875;28;20066;-76
2024/01/14 04:17:38;;;;;;;42.95;13.65;;;2.80;99.90;;;;;;4996209;28;20038;-76
2024/01/14 04:20:04;;;;;;;47.10;14.57;;;2.80;99.90;;;;;;4998370;28;20494;-76
2024/01/14 04:22:30;;;;;;;41.72;13.70;;;2.70;99.90;;;;;;4996854;28;20053;-76
2024/01/14 04:24:56;;;;;;;40.25;13.13;;;2.80;99.90;;;;;;4998809;28;20030;-76
2024/01/14 04:27:21;;;;;;;48.03;14.45;;;3.90;99.90;;;;;;4998516;28;20031;-76
2024/01/14 04:29:47;;;;;;;54.45;15.90;;;2.90;99.90;;;;;;4999133;28;20102;-76
2024/01/14 04:32:12;;;;;;;44.17;14.48;;;2.80;99.90;;;;;;4997565;28;20023;-76
2024/01/14 04:34:38;;;;;;;47.33;15.13;;;2.80;99.90;;;;;;4997706;28;20023;-76
2024/01/14 04:37:03;;;;;;;42.97;15.00;;;2.80;99.90;;;;;;4997806;28;20106;-76
2024/01/14 04:39:29;;;;;;;39.65;14.63;;;2.80;99.90;;;;;;4998042;28;20497;-76
2024/01/14 04:41:55;;;;;;;43.92;14.43;;;2.80;99.90;;;;;;4997422;28;20018;-76
2024/01/14 04:44:21;;;;;;;48.85;15.15;;;5.50;99.90;;;;;;4998256;28;20402;-76
2024/01/14 04:46:47;;;;;;;42.67;14.57;;;2.70;99.90;;;;;;4996271;28;20030;-76
2024/01/14 04:49:12;;;;;;;41.58;14.93;;;2.70;99.90;;;;;;4997564;28;20565;-76
2024/01/14 04:51:38;;;;;;;45.28;14.40;;;3.00;99.90;;;;;;4998013;28;20537;-76
2024/01/14 04:54:04;;;;;;;40.60;13.20;;;2.80;99.90;;;;;;4997578;28;20497;-76
2024/01/14 04:56:30;;;;;;;42.35;14.90;;;2.80;99.90;;;;;;4996542;28;20073;-76
2024/01/14 04:58:56;;;;;;;42.00;14.38;;;2.80;99.90;;;;;;4997797;28;20063;-76
2024/01/14 05:01:21;;;;;;;46.92;15.23;;;2.70;99.90;;;;;;4997762;28;20453;-76
2024/01/14 05:03:47;;;;;;;47.25;13.80;;;2.80;99.90;;;;;;4996869;28;20026;-75
2024/01/14 05:06:13;;;;;;;38.30;13.82;;;2.80;99.90;;;;;;4997269;28;20037;-76
2024/01/14 05:08:41;;;;;;;44.92;15.10;;;2.80;99.90;;;;;;4997750;28;20022;-76
2024/01/14 05:11:07;;;;;;;37.45;13.43;;;2.80;99.90;;;;;;4994936;28;20026;-75
2024/01/14 05:13:33;;;;;;;42.40;12.95;;;2.80;99.90;;;;;;4996409;28;20121;-75
2024/01/14 05:15:59;;;;;;;35.22;12.55;;;2.80;99.90;;;;;;4997569;28;20536;-75
2024/01/14 05:18:25;;;;;;;42.13;14.18;;;2.80;99.90;;;;;;4996992;28;20030;-76
2024/01/14 05:20:50;;;;;;;38.80;12.50;;;2.80;99.90;;;;;;4996940;28;20023;-76
2024/01/14 05:23:16;;;;;;;38.38;13.65;;;4.00;99.90;;;;;;4996683;28;20022;-75
2024/01/14 05:25:42;;;;;;;39.85;12.68;;;2.90;99.90;;;;;;4995896;28;20022;-75
2024/01/14 05:28:07;;;;;;;39.10;13.70;;;2.80;99.90;;;;;;4997007;28;20037;-76
2024/01/14 05:30:33;;;;;;;37.00;12.63;;;2.90;99.90;;;;;;4996496;28;20029;-76
2024/01/14 05:32:58;;;;;;;34.20;11.50;;;2.90;99.90;;;;;;4996969;28;20034;-76
2024/01/14 05:35:24;;;;;;;38.25;13.30;;;2.90;99.90;;;;;;4996150;28;20011;-76
2024/01/14 05:37:50;;;;;;;37.58;12.43;;;2.90;99.90;;;;;;4996621;28;20018;-76
2024/01/14 05:40:15;;;;;;;41.40;14.27;;;2.80;99.90;;;;;;4996926;28;20026;-76
2024/01/14 05:42:42;;;;;;;35.45;12.77;;;2.80;99.90;;;;;;4996384;28;20022;-76
2024/01/14 05:45:12;;;;;;;39.67;14.77;;;2.80;99.90;;;;;;4997260;28;20448;-76
2024/01/14 05:47:38;;;;;;;43.92;14.85;;;2.80;99.90;;;;;;4995728;28;20061;-76
2024/01/14 05:50:05;;;;;;;42.53;14.23;;;2.70;99.90;;;;;;4996941;28;20046;-76
2024/01/14 05:52:30;;;;;;;40.75;13.60;;;2.70;99.90;;;;;;4998566;28;20517;-76
2024/01/14 05:54:56;;;;;;;40.22;13.88;;;2.70;99.90;;;;;;5000857;28;20019;-76
2024/01/14 05:57:22;;;;;;;38.22;14.70;;;2.70;99.90;;;;;;4999679;28;20076;-76
2024/01/14 05:59:48;;;;;;;40.15;14.60;;;4.60;99.90;;;;;;5001609;28;20022;-76
2024/01/14 06:02:13;;;;;;;40.08;14.75;;;2.70;99.90;;;;;;5000848;28;20037;-76
2024/01/14 06:04:39;;;;;;;38.50;12.82;;;2.70;99.90;;;;;;5000519;28;20088;-76
2024/01/14 06:07:05;;;;;;;38.58;13.25;;;2.60;99.90;;;;;;5000173;28;20036;-75
2024/01/14 06:09:30;;;;;;;36.22;13.93;;;2.60;99.90;;;;;;5000085;28;20035;-75
2024/01/14 06:11:56;;;;;;;36.17;11.98;;;2.50;99.90;;;;;;5001323;28;20030;-76
2024/01/14 06:14:22;;;;;;;39.83;13.90;;;2.40;99.90;;;;;;5000566;28;20022;-76
2024/01/14 06:16:47;;;;;;;39.45;13.95;;;2.40;99.90;;;;;;5000328;28;20018;-76
2024/01/14 06:19:13;;;;;;;41.83;13.80;;;3.60;99.90;;;;;;5002059;28;20034;-76
2024/01/14 06:21:42;;;;;;;45.58;15.63;;;2.40;99.90;;;;;;5000975;28;20494;-76
2024/01/14 06:24:08;;;;;;;41.28;13.43;;;2.40;99.90;;;;;;5000962;28;20398;-76
2024/01/14 06:26:33;;;;;;;43.90;14.40;;;2.40;99.90;;;;;;4999124;28;20022;-76
2024/01/14 06:28:59;;;;;;;41.67;13.45;;;2.50;99.90;;;;;;5000214;28;20537;-76
2024/01/14 06:31:25;;;;;;;43.83;14.55;;;3.10;99.90;;;;;;4999511;28;20041;-76
2024/01/14 06:33:51;;;;;;;45.30;16.52;;;2.50;99.90;;;;;;5000112;28;20018;-76
2024/01/14 06:36:20;;;;;;;53.28;16.83;;;2.60;99.90;;;;;;4998697;28;20019;-76
2024/01/14 06:38:45;;;;;;;;;;;2.60;99.90;;;;;;5000510;28;20112;-76
2024/01/14 06:41:23;;;;;;;43.75;14.38;;;2.60;99.90;;;;;;5000326;28;20278;-76
2024/01/14 06:43:49;;;;;;;44.10;14.90;;;2.60;99.90;;;;;;5000609;28;20094;-77
2024/01/14 06:46:16;;;;;;;47.28;15.25;;;2.60;99.90;;;;;;5000218;28;20753;-77
2024/01/14 06:48:41;;;;;;;46.85;15.85;;;3.80;99.90;;;;;;4998604;28;20040;-76
2024/01/14 06:51:07;;;;;;;46.72;15.30;;;4.50;99.90;;;;;;4998140;28;20026;-75
2024/01/14 06:53:33;;;;;;;46.17;13.90;;;2.50;99.90;;;;;;4999706;28;20088;-76
2024/01/14 06:56:00;;;;;;;45.65;15.27;;;2.50;99.90;;;;;;4999891;28;20082;-76
2024/01/14 06:58:25;;;;;;;44.08;16.02;;;2.60;99.90;;;;;;4999808;28;20030;-76
2024/01/14 07:00:51;;;;;;;44.08;16.38;;;2.60;99.90;;;;;;5000071;28;20074;-76
2024/01/14 07:03:17;;;;;;;48.22;15.98;;;2.60;99.90;;;;;;4999681;28;20019;-77
2024/01/14 07:05:43;;;;;;;50.45;16.40;;;2.60;99.90;;;;;;4999314;28;20023;-76
2024/01/14 07:08:09;;;;;;;55.28;17.35;;;3.10;99.90;;;;;;4999465;28;20026;-76
2024/01/14 07:10:35;;;;;;;36.65;12.13;;;2.60;99.90;;;;;;4999268;28;20053;-77
2024/01/14 07:13:01;;;;;;;41.50;14.02;;;2.50;99.90;;;;;;4998653;28;20019;-76
2024/01/14 07:15:27;;;;;;;54.10;15.25;;;2.50;99.90;;;;;;4998770;28;20030;-77
2024/01/14 07:17:52;;;;;;;52.42;16.38;;;2.50;99.90;;;;;;4999875;28;20018;-76
2024/01/14 07:20:18;;;;;;;46.13;14.45;;;2.50;99.90;;;;;;4999644;28;20029;-76
2024/01/14 07:22:44;;;;;;;52.65;16.33;;;2.60;99.90;;;;;;4998673;28;20526;-76
2024/01/14 07:25:10;;;;;;;50.33;15.30;;;2.60;99.90;;;;;;4999768;28;20237;-76
2024/01/14 07:27:36;;;;;;;55.35;16.15;;;2.60;99.90;;;;;;4998221;28;20034;-76
2024/01/14 07:30:05;;;;;;;49.20;14.57;;;2.60;99.90;;;;;;4999701;28;20113;-76
2024/01/14 07:32:31;;;;;;;49.35;16.27;;;2.50;99.90;;;;;;4999968;28;20029;-77
2024/01/14 07:34:57;;;;;;;44.30;15.18;;;2.60;99.90;;;;;;5000235;28;20027;-77
2024/01/14 07:37:23;;;;;;;57.42;17.05;;;3.30;99.90;;;;;;5000132;28;20029;-77
2024/01/14 07:39:49;;;;;;;57.75;17.35;;;2.50;99.90;;;;;;4999030;28;20023;-76
2024/01/14 07:42:16;;;;;;;54.70;15.32;;;2.50;99.90;;;;;;5000206;28;20023;-77
2024/01/14 07:44:41;;;;;;;56.75;16.75;;;2.60;99.90;;;;;;4999313;28;20100;-77
2024/01/14 07:47:10;;;;;;;45.58;14.70;;;2.60;99.90;;;;;;4998650;28;20034;-76
2024/01/14 07:49:35;;;;;;;53.58;16.73;;;2.60;99.90;;;;;;4999189;28;20045;-76
2024/01/14 07:52:02;;;;;;;49.72;15.90;;;2.60;99.90;;;;;;4999694;28;20030;-76
2024/01/14 07:54:28;;;;;;;45.10;14.95;;;2.60;99.90;;;;;;4998846;28;20078;-76
2024/01/14 07:56:53;;;;;;;48.72;15.57;;;2.60;99.90;;;;;;4998551;28;20439;-76
2024/01/14 07:59:23;;;;;;;49.00;15.75;;;2.70;99.90;;;;;;4998273;28;20045;-76
2024/01/14 08:01:49;;;;;;;45.13;14.32;;;2.60;99.90;;;;;;4998583;28;20101;-76
2024/01/14 08:04:15;;;;;;;54.45;15.93;;;2.60;99.90;;;;;;4998888;28;20030;-76
2024/01/14 08:06:40;;;;;;;45.22;14.55;;;2.60;99.90;;;;;;4999272;28;20072;-75
2024/01/14 08:09:06;;;;;;;44.30;13.48;;;2.70;99.90;;;;;;5000708;28;20022;-75
2024/01/14 08:11:32;;;;;;;46.08;12.80;;;2.70;99.90;;;;;;5000350;28;20124;-76
2024/01/14 08:13:58;;;;;;;46.95;15.23;;;2.70;99.90;;;;;;4999872;28;20523;-76
2024/01/14 08:16:23;;;;;;;38.78;12.57;;;2.70;99.90;;;;;;5000004;28;20027;-75
2024/01/14 08:18:50;;;;;;;41.58;12.38;;;;;;;;;;4999015;28;20095;-76
2024/01/14 08:21:16;;;;;;;45.92;14.07;;;2.70;99.90;;;;;;5000326;28;20425;-76
2024/01/14 08:23:42;;;;;;;41.10;14.00;;;2.70;99.90;;;;;;4999185;28;20080;-76
2024/01/14 08:26:07;;;;;;;45.47;13.60;;;2.70;99.90;;;;;;4999410;28;20022;-76
2024/01/14 08:28:35;;;;;;;45.30;13.73;;;2.70;99.90;;;;;;4999078;28;20029;-76
2024/01/14 08:31:01;;;;;;;41.17;12.77;;;2.70;99.90;;;;;;5000192;28;20098;-76
2024/01/14 08:33:27;;;;;;;41.85;12.43;;;2.80;99.90;;;;;;4999208;28;20045;-77
2024/01/14 08:35:56;;;;;;;38.38;13.18;;;2.80;99.90;;;;;;4999317;28;20073;-76
2024/01/14 08:38:23;;;;;;;42.70;13.18;;;2.80;99.90;;;;;;4998860;28;20249;-76
2024/01/14 08:40:48;;;;;;;42.33;13.70;;;3.40;99.90;;;;;;5000868;28;20042;-76
2024/01/14 08:43:16;;;;;;;32.67;11.52;;;2.80;99.90;;;;;;4999147;28;20080;-76
2024/01/14 08:45:41;;;;;;;40.00;12.95;;;2.90;99.90;;;;;;4999638;28;20019;-77
2024/01/14 08:48:07;;;;;;;41.60;13.05;;;2.90;99.90;;;;;;4998523;28;20516;-75
2024/01/14 08:50:33;;;;;;;48.65;14.13;;;3.20;99.90;;;;;;4999390;28;20027;-78
2024/01/14 08:52:59;;;;;;;43.85;13.73;;;;;;;;;;5000060;28;20037;-78
2024/01/14 08:55:24;;;;;;;48.22;15.20;;;2.90;99.90;;;;;;4998856;28;20026;-78
2024/01/14 08:57:53;;;;;;;41.08;11.73;;;2.80;99.90;;;;;;4998633;28;20026;-79
2024/01/14 09:00:18;;;;;;;40.03;13.37;;;2.90;99.90;;;;;;4997411;28;20029;-78
2024/01/14 09:02:44;;;;;;;45.90;14.00;;;2.80;99.90;;;;;;4998078;28;20269;-78
2024/01/14 09:05:10;;;;;;;43.92;13.63;;;2.80;99.90;;;;;;4997290;28;20026;-78
2024/01/14 09:07:36;;;;;;;47.88;15.68;;;;;;;;;;4998758;28;20438;-78
2024/01/14 09:10:02;;;;;;;42.10;13.35;;;2.80;99.90;;;;;;4998756;28;20038;-75
2024/01/14 09:12:29;;;;;;;48.60;13.80;;;2.90;99.90;;;;;;4999020;28;20393;-75
2024/01/14 09:14:54;;;;;;;36.25;11.68;;;2.90;99.90;;;;;;4997497;28;20041;-75
2024/01/14 09:17:20;;;;;;;41.13;13.73;;;2.90;99.90;;;;;;4998468;28;20078;-75
2024/01/14 09:19:45;;;;;;;41.05;14.07;;;3.00;99.90;;;;;;4996712;28;20082;-75
2024/01/14 09:22:11;;;;;;;42.67;14.82;;;3.00;99.90;;;;;;4998873;28;20081;-75
2024/01/14 09:24:42;;;;;;;39.55;13.30;;;3.10;99.90;;;;;;4997334;28;20073;-75
2024/01/14 09:27:08;;;;;;;46.65;13.75;;;3.10;99.90;;;;;;4995212;28;20061;-75
2024/01/14 09:29:34;;;;;;;43.67;13.05;;;3.10;99.90;;;;;;4997714;28;20422;-75
2024/01/14 09:32:02;;;;;;;30.83;11.27;;;3.10;99.90;;;;;;4996566;28;20027;-75
2024/01/14 09:34:27;;;;;;;47.97;14.77;;;3.00;99.90;;;;;;4996808;28;20540;-77
2024/01/14 09:36:53;;;;;;;44.80;14.73;;;3.10;99.90;;;;;;4996426;28;20023;-77
2024/01/14 09:39:19;;;;;;;44.63;13.90;;;3.10;99.90;;;;;;4998463;28;20079;-76
2024/01/14 09:42:15;;;;;;;47.03;15.43;;;3.10;99.90;;;;;;4996923;28;20121;-76
2024/01/14 09:44:41;;;;;;;51.10;14.75;;;3.10;99.90;;;;;;4997794;28;20065;-76
2024/01/14 09:47:08;;;;;;;44.67;14.82;;;3.00;99.90;;;;;;4997151;28;20027;-76
2024/01/14 09:49:36;;;;;;;50.75;15.80;;;3.00;99.90;;;;;;4996057;28;20029;-76
2024/01/14 09:52:04;;;;;;;55.30;15.75;;;3.10;99.90;;;;;;4996544;28;20061;-76
2024/01/14 09:54:31;;;;;;;45.50;15.32;;;;;;;;;;4997692;28;20030;-75
2024/01/14 09:57:01;;;;;;;45.38;13.55;;;3.10;99.90;;;;;;4997768;28;20015;-76
2024/01/14 09:59:29;;;;;;;46.28;14.70;;;3.10;99.90;;;;;;4996635;28;20018;-76
2024/01/14 10:01:55;;;;;;;34.67;11.27;;;3.10;99.90;;;;;;4998023;28;20435;-76
2024/01/14 10:04:22;;;;;;;40.92;13.70;;;3.10;99.90;;;;;;4996437;28;20509;-76
2024/01/14 10:06:48;;;;;;;40.95;14.55;;;3.10;99.90;;;;;;4997958;28;20030;-76
2024/01/14 10:09:14;;;;;;;45.90;15.63;;;3.10;99.90;;;;;;4997373;28;20022;-77
2024/01/14 10:11:39;;;;;;;36.55;12.98;;;3.10;99.90;;;;;;4996568;28;20036;-77
2024/01/14 10:14:05;;;;;;;47.20;14.48;;;3.10;99.90;;;;;;4996954;28;20019;-78
2024/01/14 10:16:35;;;;;;;45.13;13.40;;;3.10;99.90;;;;;;4996074;28;20073;-77
2024/01/14 10:19:01;;;;;;;36.90;12.70;;;3.10;99.90;;;;;;4997403;28;20022;-77
2024/01/14 10:21:27;;;;;;;43.65;13.48;;;3.10;99.90;;;;;;4996654;28;20026;-77
2024/01/14 10:23:54;;;;;;;40.10;12.80;;;3.20;99.90;;;;;;4996244;28;20014;-77
2024/01/14 10:26:22;;;;;;;45.28;14.77;;;3.20;99.90;;;;;;4997756;28;20026;-77
2024/01/14 10:28:48;;;;;;;46.33;13.77;;;3.20;99.90;;;;;;4997961;28;20026;-76
2024/01/14 10:31:14;;;;;;;38.80;12.63;;;3.20;99.90;;;;;;4997332;28;20280;-76
2024/01/14 10:33:39;;;;;;;37.20;12.18;;;3.20;99.90;;;;;;4998344;28;20104;-77
2024/01/14 10:36:08;;;;;;;38.95;11.70;;;3.30;99.90;;;;;;4997602;28;20389;-77
2024/01/14 10:38:37;;;;;;;35.45;11.98;;;3.20;99.90;;;;;;5001683;28;20026;-77
2024/01/14 10:41:06;;;;;;;40.28;12.52;;;3.30;99.90;;;;;;5002264;28;20389;-77
2024/01/14 10:43:33;;;;;;;41.05;12.48;;;3.30;99.90;;;;;;5001590;28;20030;-77
2024/01/14 10:45:59;;;;;;;38.20;12.20;;;3.30;99.90;;;;;;5000956;28;20033;-77
2024/01/14 10:48:26;;;;;;;36.08;12.35;;;3.30;99.90;;;;;;5001967;28;20031;-77
2024/01/14 10:51:00;;;;;;;42.13;13.13;;;3.30;99.90;;;;;;5002201;28;20018;-77
2024/01/14 10:53:41;;;;;;;35.08;13.13;;;3.40;99.90;;;;;;5000348;28;20096;-77
2024/01/14 10:56:14;;;;;;;39.33;13.02;;;3.40;99.90;;;;;;5000909;28;20401;-76
2024/01/14 10:58:41;;;;;;;27.98;9.38;;;3.40;99.90;;;;;;5000090;28;20022;-77
2024/01/14 11:01:08;;;;;;;37.65;12.88;;;3.40;99.90;;;;;;5001381;28;20023;-76
2024/01/14 11:03:35;;;;;;;40.72;14.25;;;3.40;99.90;;;;;;4998973;28;20015;-77
2024/01/14 11:06:02;;;;;;;36.95;12.10;;;3.50;99.90;;;;;;4998582;28;20108;-77
2024/01/14 11:08:28;;;;;;;31.77;10.45;;;3.40;99.90;;;;;;4999730;28;20022;-77
2024/01/14 11:10:54;;;;;;;41.65;14.18;;;3.50;99.90;;;;;;4998738;28;20022;-77
2024/01/14 11:13:23;;;;;;;39.60;12.68;;;3.40;99.90;;;;;;4999855;28;20030;-77
2024/01/14 11:16:09;;;;;;;50.00;15.10;;;3.30;99.90;;;;;;4999958;28;20027;-77
2024/01/14 11:18:42;;;;;;;50.70;14.65;;;3.30;99.90;;;;;;5000272;28;20021;-77
2024/01/14 11:21:36;;;;;;;51.63;15.40;;;3.40;99.90;;;;;;5000191;28;20029;-77
2024/01/14 11:24:02;;;;;;;42.83;13.63;;;3.40;99.90;;;;;;5000350;28;20027;-77
2024/01/14 11:26:28;;;;;;;53.55;15.18;;;3.50;99.90;;;;;;4999894;28;20084;-77
2024/01/14 11:28:57;;;;;;;49.45;15.45;;;3.40;99.90;;;;;;4999828;28;20018;-77
2024/01/14 11:32:01;;;;;;;50.78;14.63;;;3.40;99.90;;;;;;4998595;28;20066;-77
2024/01/14 11:34:45;;;;;;;49.65;14.30;;;3.40;99.90;;;;;;4999733;28;20027;-76
2024/01/14 11:37:37;;;;;;;51.30;15.23;;;3.40;99.90;;;;;;4997628;28;20026;-77
2024/01/14 11:40:27;;;;;;;41.63;13.00;;;3.30;99.90;;;;;;5000480;28;20041;-77
2024/01/14 11:43:01;;;;;;;51.92;16.95;;;3.40;99.90;;;;;;4999114;28;20030;-77
2024/01/14 11:45:27;;;;;;;46.33;15.32;;;3.60;99.90;;;;;;4998614;28;20045;-77
2024/01/14 11:47:54;;;;;;;49.85;16.20;;;3.60;99.90;;;;;;4999149;28;20042;-77
2024/01/14 11:50:21;;;;;;;53.30;15.82;;;3.70;99.90;;;;;;4996711;28;20406;-77
2024/01/14 11:52:52;;;;;;;50.80;14.60;;;3.90;99.90;;;;;;4998216;28;20026;-77
2024/01/14 11:55:26;;;;;;;48.10;14.77;;;4.00;99.90;;;;;;4998905;28;20030;-77
2024/01/14 11:57:52;;;;;;;47.05;14.25;;;4.00;99.90;;;;;;4998880;28;20022;-77
2024/01/14 12:00:23;;;;;;;39.70;13.43;;;4.00;99.90;;;;;;4997565;28;20022;-77
2024/01/14 12:03:05;;;;;;;40.40;12.73;;;5.50;99.90;;;;;;4999077;28;20429;-77
2024/01/14 12:05:31;;;;;;;46.72;13.25;;;4.10;99.90;;;;;;4998737;28;20026;-77
2024/01/14 12:07:59;;;;;;;35.78;11.77;;;4.10;99.90;;;;;;4998052;28;20098;-76
2024/01/14 12:10:24;;;;;;;37.63;12.40;;;4.20;99.90;;;;;;4997853;28;20022;-77
2024/01/14 12:12:50;;;;;;;35.95;11.77;;;4.10;99.90;;;;;;4999110;28;20315;-77
2024/01/14 12:15:18;;;;;;;37.13;12.10;;;4.20;99.90;;;;;;4997483;28;20023;-77
2024/01/14 12:17:58;;;;;;;30.17;10.52;;;4.20;99.90;;;;;;4998220;28;20069;-77
2024/01/14 12:20:25;;;;;;;37.67;10.93;;;4.10;99.90;;;;;;4999482;28;20422;-77
2024/01/14 12:23:04;;;;;;;28.77;10.20;;;4.10;99.90;;;;;;4996502;28;20018;-77
2024/01/14 12:25:30;;;;;;;28.63;10.63;;;4.10;99.90;;;;;;4998038;28;20371;-77
2024/01/14 12:27:56;;;;;;;29.30;10.57;;;4.10;99.90;;;;;;4996634;28;20029;-77
2024/01/14 12:30:34;;;;;;;30.08;10.52;;;4.00;99.90;;;;;;4996714;28;20124;-77
2024/01/14 12:33:12;;;;;;;32.05;10.82;;;4.10;99.90;;;;;;4998630;28;20031;-77
2024/01/14 12:35:38;;;;;;;29.38;10.00;;;4.00;99.90;;;;;;4998180;28;20022;-77
2024/01/14 12:38:08;;;;;;;28.13;9.43;;;4.00;99.90;;;;;;4997072;28;20022;-77
2024/01/14 12:40:35;;;;;;;35.13;11.57;;;4.00;99.90;;;;;;4999000;28;20026;-77